createdAt,value
2023-04-18T00:02:43.981Z,16.37
2023-04-18T00:05:48.209Z,18.37
2023-04-18T00:08:51.381Z,18.93
2023-04-18T00:11:54.491Z,17.70
2023-04-18T00:15:00.726Z,19.60
2023-04-18T00:18:06.070Z,18.73
2023-04-18T00:21:09.721Z,19.47
2023-04-18T00:24:12.930Z,19.90
2023-04-18T00:27:16.437Z,18.90
2023-04-18T00:30:21.256Z,21.37
2023-04-18T00:33:24.339Z,20.77
2023-04-18T00:36:28.142Z,16.83
2023-04-18T00:39:31.263Z,18.40
2023-04-18T00:42:34.540Z,18.30
2023-04-18T00:45:38.918Z,16.90
2023-04-18T00:48:42.227Z,17.73
2023-04-18T00:51:45.764Z,19.30
2023-04-18T00:54:48.920Z,17.87
2023-04-18T00:57:52.163Z,17.20
2023-04-18T01:00:56.643Z,18.47
2023-04-18T01:03:59.933Z,18.70
2023-04-18T01:07:03.404Z,18.13
2023-04-18T01:10:07.647Z,15.13
2023-04-18T01:13:15.181Z,18.50
2023-04-18T01:16:19.753Z,19.73
2023-04-18T01:19:23.219Z,18.03
2023-04-18T01:22:26.650Z,20.77
2023-04-18T01:25:31.068Z,20.33
2023-04-18T01:28:38.284Z,18.77
2023-04-18T01:31:42.438Z,17.20
2023-04-18T01:34:47.770Z,18.13
2023-04-18T01:37:51.006Z,18.70
2023-04-18T01:40:55.519Z,17.50
2023-04-18T01:43:58.586Z,21.17
2023-04-18T01:47:01.734Z,18.90
2023-04-18T01:50:05.675Z,18.27
2023-04-18T01:53:10.566Z,17.70
2023-04-18T01:56:18.233Z,18.37
2023-04-18T01:59:21.228Z,19.10
2023-04-18T02:02:24.525Z,18.80
2023-04-18T02:05:28.087Z,15.80
2023-04-18T02:08:33.079Z,17.40
2023-04-18T02:11:37.551Z,16.57
2023-04-18T02:14:40.631Z,16.93
2023-04-18T02:17:43.758Z,18.00
2023-04-18T02:20:47.010Z,17.97
2023-04-18T02:23:50.971Z,19.97
2023-04-18T02:26:55.342Z,18.40
2023-04-18T02:29:58.371Z,17.00
2023-04-18T02:33:01.526Z,18.30
2023-04-18T02:36:05.402Z,17.63
2023-04-18T02:39:08.439Z,19.13
2023-04-18T02:42:16.005Z,17.37
2023-04-18T02:45:19.380Z,17.30
2023-04-18T02:48:22.773Z,17.50
2023-04-18T02:51:26.363Z,17.40
2023-04-18T02:54:29.479Z,15.83
2023-04-18T02:57:33.922Z,16.07
2023-04-18T03:00:37.694Z,18.00
2023-04-18T03:03:40.756Z,16.23
2023-04-18T03:06:43.870Z,17.63
2023-04-18T03:09:46.984Z,17.30
2023-04-18T03:12:51.508Z,18.17
2023-04-18T03:15:54.732Z,17.03
2023-04-18T03:18:57.880Z,18.97
2023-04-18T03:22:00.855Z,17.47
2023-04-18T03:25:04.017Z,19.87
2023-04-18T03:28:08.475Z,18.40
2023-04-18T03:31:11.678Z,16.30
2023-04-18T03:34:14.984Z,15.67
2023-04-18T03:37:18.307Z,18.33
2023-04-18T03:40:22.740Z,16.40
2023-04-18T03:43:27.173Z,17.17
2023-04-18T03:46:30.753Z,18.27
2023-04-18T03:49:33.873Z,16.60
2023-04-18T03:52:36.910Z,16.80
2023-04-18T03:55:40.360Z,16.63
2023-04-18T03:58:44.818Z,15.57
2023-04-18T04:01:48.004Z,15.63
2023-04-18T04:04:51.405Z,15.67
2023-04-18T04:07:54.604Z,16.10
2023-04-18T04:10:57.637Z,18.03
2023-04-18T04:14:03.151Z,15.50
2023-04-18T04:17:06.668Z,16.83
2023-04-18T04:20:10.534Z,15.73
2023-04-18T04:23:13.556Z,20.57
2023-04-18T04:26:16.640Z,16.27
2023-04-18T04:29:21.700Z,17.90
2023-04-18T04:32:25.260Z,15.77
2023-04-18T04:35:28.934Z,16.97
2023-04-18T04:38:31.944Z,16.80
2023-04-18T04:41:37.656Z,16.50
2023-04-18T04:44:43.022Z,17.00
2023-04-18T04:47:46.292Z,17.47
2023-04-18T04:50:53.759Z,16.67
2023-04-18T04:53:56.937Z,15.67
2023-04-18T04:57:00.026Z,16.77
2023-04-18T05:00:07.221Z,18.47
2023-04-18T05:03:11.509Z,17.37
2023-04-18T05:06:20.661Z,17.13
2023-04-18T05:09:23.709Z,16.77
2023-04-18T05:12:26.748Z,16.30
2023-04-18T05:15:31.805Z,16.87
2023-04-18T05:18:35.208Z,18.50
2023-04-18T05:21:38.435Z,18.90
2023-04-18T05:24:41.932Z,17.97
2023-04-18T05:27:46.343Z,16.83
2023-04-18T05:30:51.026Z,18.20
2023-04-18T05:33:54.137Z,18.00
2023-04-18T05:36:57.815Z,18.07
2023-04-18T05:40:01.197Z,18.07
2023-04-18T05:43:04.325Z,17.50
2023-04-18T05:46:09.139Z,18.60
2023-04-18T05:49:12.283Z,17.03
2023-04-18T05:52:15.528Z,16.60
2023-04-18T05:55:18.763Z,17.73
2023-04-18T05:58:21.909Z,16.33
2023-04-18T06:01:27.434Z,18.07
2023-04-18T06:04:30.722Z,17.97
2023-04-18T06:07:34.367Z,17.77
2023-04-18T06:10:39.119Z,18.63
2023-04-18T06:13:42.880Z,17.57
2023-04-18T06:16:47.445Z,17.57
2023-04-18T06:19:50.700Z,15.67
2023-04-18T06:22:53.827Z,15.33
2023-04-18T06:25:59.081Z,17.37
2023-04-18T06:29:02.294Z,16.87
2023-04-18T06:32:07.435Z,17.20
2023-04-18T06:35:11.038Z,15.67
2023-04-18T06:38:14.154Z,17.00
2023-04-18T06:41:17.148Z,15.50
2023-04-18T06:44:20.324Z,16.83
2023-04-18T06:47:25.105Z,16.47
2023-04-18T06:50:28.623Z,15.07
2023-04-18T06:53:31.732Z,15.37
2023-04-18T06:56:36.509Z,16.43
2023-04-18T06:59:41.366Z,15.83
2023-04-18T07:02:46.038Z,14.30
2023-04-18T07:05:50.400Z,15.17
2023-04-18T07:08:55.918Z,14.17
2023-04-18T07:11:59.141Z,14.40
2023-04-18T07:15:03.382Z,14.30
2023-04-18T07:18:07.889Z,14.50
2023-04-18T07:21:11.208Z,13.57
2023-04-18T07:24:14.531Z,15.30
2023-04-18T07:27:17.736Z,15.17
2023-04-18T07:30:20.901Z,13.50
2023-04-18T07:33:25.365Z,14.50
2023-04-18T07:36:28.758Z,14.97
2023-04-18T07:39:35.910Z,14.63
2023-04-18T07:42:39.027Z,14.60
2023-04-18T07:45:57.216Z,14.03
2023-04-18T07:49:02.334Z,14.77
2023-04-18T07:52:06.083Z,13.90
2023-04-18T07:55:09.860Z,13.33
2023-04-18T07:58:13.145Z,13.80
2023-04-18T08:01:18.350Z,14.30
2023-04-18T08:04:22.908Z,12.77
2023-04-18T08:07:26.172Z,13.80
2023-04-18T08:10:29.520Z,14.20
2023-04-18T08:13:32.554Z,13.73
2023-04-18T08:16:36.023Z,13.63
2023-04-18T08:19:40.505Z,13.00
2023-04-18T08:22:57.780Z,14.57
2023-04-18T08:26:06.873Z,12.27
2023-04-18T08:29:09.921Z,14.20
2023-04-18T08:32:13.044Z,14.97
2023-04-18T08:35:17.526Z,15.27
2023-04-18T08:38:20.966Z,14.90
2023-04-18T08:41:24.450Z,14.27
2023-04-18T08:44:29.107Z,14.40
2023-04-18T08:47:32.863Z,13.33
2023-04-18T08:50:37.618Z,15.17
2023-04-18T08:53:42.094Z,14.20
2023-04-18T08:56:45.435Z,13.13
2023-04-18T08:59:51.105Z,14.77
2023-04-18T09:02:56.991Z,13.37
2023-04-18T09:06:10.004Z,13.87
2023-04-18T09:09:13.266Z,14.23
2023-04-18T09:12:18.424Z,14.43
2023-04-18T09:15:23.832Z,14.10
2023-04-18T09:18:27.118Z,16.10
2023-04-18T09:21:32.767Z,13.30
2023-04-18T09:24:35.812Z,11.97
2023-04-18T09:27:38.907Z,13.73
2023-04-18T09:30:43.180Z,13.37
2023-04-18T09:33:56.794Z,13.83
2023-04-18T09:37:12.371Z,12.93
2023-04-18T09:40:38.233Z,12.47
2023-04-18T09:43:42.702Z,12.90
2023-04-18T09:46:47.422Z,13.07
2023-04-18T09:49:51.300Z,13.57
2023-04-18T09:52:56.570Z,13.53
2023-04-18T09:56:00.429Z,13.70
2023-04-18T09:59:09.138Z,13.70
2023-04-18T10:02:21.003Z,14.03
2023-04-18T10:05:27.381Z,13.90
2023-04-18T10:08:32.813Z,13.90
2023-04-18T10:11:36.451Z,14.00
2023-04-18T10:14:43.723Z,14.07
2023-04-18T10:18:03.420Z,14.10
2023-04-18T10:21:10.449Z,13.10
2023-04-18T10:24:53.251Z,14.63
2023-04-18T10:27:58.933Z,14.23
2023-04-18T10:31:04.219Z,14.57
2023-04-18T10:34:08.424Z,13.67
2023-04-18T10:37:13.073Z,12.77
2023-04-18T10:40:17.783Z,12.50
2023-04-18T10:43:21.015Z,13.30
2023-04-18T10:46:31.831Z,12.50
2023-04-18T10:50:28.168Z,12.47
2023-04-18T10:53:31.356Z,12.90
2023-04-18T10:56:35.850Z,12.20
2023-04-18T10:59:40.249Z,12.60
2023-04-18T11:02:55.958Z,12.07
2023-04-18T11:06:03.470Z,10.93
2023-04-18T11:09:14.515Z,15.27
2023-04-18T11:12:18.999Z,11.23
2023-04-18T11:15:24.286Z,11.30
2023-04-18T11:18:27.400Z,12.20
2023-04-18T11:21:32.917Z,12.47
2023-04-18T11:24:36.082Z,12.50
2023-04-18T11:27:42.929Z,13.17
2023-04-18T11:30:46.013Z,11.70
2023-04-18T11:33:49.039Z,12.50
2023-04-18T11:36:53.250Z,12.10
2023-04-18T11:39:56.469Z,12.53
2023-04-18T11:43:04.124Z,12.87
2023-04-18T11:46:07.359Z,10.80
2023-04-18T11:49:26.204Z,13.00
2023-04-18T11:52:30.617Z,11.80
2023-04-18T11:55:33.988Z,12.00
2023-04-18T11:58:38.411Z,12.07
2023-04-18T12:01:41.606Z,12.90
2023-04-18T12:04:56.017Z,11.93
2023-04-18T12:08:08.071Z,12.90
2023-04-18T12:11:11.157Z,11.87
2023-04-18T12:14:22.562Z,12.00
2023-04-18T12:17:27.005Z,13.07
2023-04-18T12:20:37.544Z,13.73
2023-04-18T12:23:41.871Z,13.00
2023-04-18T12:26:47.142Z,13.37
2023-04-18T12:29:54.548Z,14.70
2023-04-18T12:32:59.943Z,13.53
2023-04-18T12:36:05.287Z,14.53
2023-04-18T12:39:08.433Z,14.53
2023-04-18T12:42:11.491Z,15.10
2023-04-18T12:45:17.380Z,16.40
2023-04-18T12:48:20.669Z,15.50
2023-04-18T12:51:23.735Z,13.87
2023-04-18T12:54:26.913Z,14.80
2023-04-18T12:57:31.766Z,13.20
2023-04-18T13:00:36.711Z,14.53
2023-04-18T13:03:39.920Z,15.57
2023-04-18T13:06:43.146Z,15.40
2023-04-18T13:09:47.363Z,14.60
2023-04-18T13:12:53.356Z,15.67
2023-04-18T13:15:57.807Z,15.70
2023-04-18T13:19:00.864Z,14.97
2023-04-18T13:22:04.845Z,14.70
2023-04-18T13:25:10.447Z,15.50
2023-04-18T13:28:13.470Z,13.63
2023-04-18T13:31:17.968Z,16.33
2023-04-18T13:34:21.073Z,13.93
2023-04-18T13:37:25.056Z,14.03
2023-04-18T13:40:28.072Z,14.57
2023-04-18T13:43:31.076Z,15.10
2023-04-18T13:46:36.430Z,14.87
2023-04-18T13:49:39.559Z,13.60
2023-04-18T13:52:42.894Z,15.50
2023-04-18T13:55:45.956Z,14.43
2023-04-18T13:58:49.033Z,14.30
2023-04-18T14:01:54.452Z,14.17
2023-04-18T14:04:58.316Z,13.17
2023-04-18T14:08:04.104Z,13.40
2023-04-18T14:11:10.166Z,13.63
2023-04-18T14:14:13.290Z,12.43
2023-04-18T14:17:17.867Z,12.60
2023-04-18T14:20:20.946Z,12.43
2023-04-18T14:23:24.059Z,11.77
2023-04-18T14:26:27.078Z,11.30
2023-04-18T14:29:30.108Z,13.53
2023-04-18T14:32:35.404Z,11.20
2023-04-18T14:35:38.555Z,12.17
2023-04-18T14:38:41.539Z,12.77
2023-04-18T14:41:45.829Z,11.77
2023-04-18T14:44:48.836Z,12.63
2023-04-18T14:47:55.529Z,12.37
2023-04-18T14:50:59.652Z,10.77
2023-04-18T14:54:02.753Z,12.47
2023-04-18T14:57:08.095Z,11.00
2023-04-18T15:00:12.511Z,10.80
2023-04-18T15:03:17.379Z,12.40
2023-04-18T15:06:20.506Z,12.00
2023-04-18T15:09:23.485Z,11.10
2023-04-18T15:12:26.530Z,12.43
2023-04-18T15:15:30.523Z,12.07
2023-04-18T15:18:35.325Z,11.83
2023-04-18T15:21:38.441Z,10.60
2023-04-18T15:24:41.534Z,11.13
2023-04-18T15:27:44.781Z,9.40
2023-04-18T15:30:47.830Z,8.80
2023-04-18T15:33:52.305Z,9.33
2023-04-18T15:36:55.446Z,8.47
2023-04-18T15:39:58.490Z,8.97
2023-04-18T15:43:01.646Z,9.90
2023-04-18T15:46:05.235Z,8.10
2023-04-18T15:49:10.076Z,7.80
2023-04-18T15:52:15.792Z,7.23
2023-04-18T15:55:18.894Z,8.30
2023-04-18T15:58:22.269Z,7.53
2023-04-18T16:01:25.666Z,7.83
2023-04-18T16:04:30.471Z,6.93
2023-04-18T16:07:33.579Z,7.40
2023-04-18T16:10:36.680Z,6.70
2023-04-18T16:13:41.529Z,6.83
2023-04-18T16:16:44.602Z,6.10
2023-04-18T16:19:49.191Z,6.60
2023-04-18T16:22:52.365Z,9.67
2023-04-18T16:25:55.808Z,6.60
2023-04-18T16:28:58.835Z,6.50
2023-04-18T16:32:01.849Z,5.57
2023-04-18T16:35:07.876Z,6.43
2023-04-18T16:38:10.988Z,5.43
2023-04-18T16:41:14.090Z,5.37
2023-04-18T16:44:17.200Z,5.47
2023-04-18T16:47:20.338Z,5.97
2023-04-18T16:50:24.931Z,5.80
2023-04-18T16:53:27.972Z,5.77
2023-04-18T16:56:31.233Z,5.87
2023-04-18T16:59:34.542Z,6.03
2023-04-18T17:02:39.744Z,6.10
2023-04-18T17:05:44.621Z,5.43
2023-04-18T17:08:48.873Z,5.80
2023-04-18T17:11:51.998Z,4.80
2023-04-18T17:14:55.039Z,5.73
2023-04-18T17:18:00.305Z,5.80
2023-04-18T17:21:05.196Z,5.60
2023-04-18T17:24:09.176Z,5.93
2023-04-18T17:27:12.568Z,5.17
2023-04-18T17:30:15.845Z,5.67
2023-04-18T17:33:18.926Z,5.50
2023-04-18T17:36:23.437Z,5.70
2023-04-18T17:39:26.995Z,5.87
2023-04-18T17:42:30.061Z,5.73
2023-04-18T17:45:33.238Z,6.40
2023-04-18T17:48:36.332Z,6.00
2023-04-18T17:51:40.756Z,6.33
2023-04-18T17:54:44.667Z,6.67
2023-04-18T17:57:47.754Z,6.60
2023-04-18T18:00:51.053Z,6.37
2023-04-18T18:03:54.908Z,6.63
2023-04-18T18:07:00.016Z,6.73
2023-04-18T18:10:03.367Z,6.70
2023-04-18T18:13:06.807Z,6.57
2023-04-18T18:16:12.522Z,6.97
2023-04-18T18:19:16.764Z,7.10
2023-04-18T18:22:24.767Z,7.27
2023-04-18T18:25:28.561Z,7.23
2023-04-18T18:28:31.756Z,6.87
2023-04-18T18:31:34.996Z,8.63
2023-04-18T18:34:38.223Z,6.90
2023-04-18T18:37:44.682Z,7.03
2023-04-18T18:40:48.054Z,7.10
2023-04-18T18:43:51.341Z,6.43
2023-04-18T18:46:54.490Z,7.40
2023-04-18T18:49:58.132Z,7.10
2023-04-18T18:53:02.854Z,7.37
2023-04-18T18:56:06.460Z,6.67
2023-04-18T18:59:09.744Z,6.90
2023-04-18T19:02:14.383Z,6.40
2023-04-18T19:05:17.772Z,7.00
2023-04-18T19:08:22.296Z,6.53
2023-04-18T19:11:26.726Z,6.80
2023-04-18T19:14:29.801Z,7.37
2023-04-18T19:17:32.919Z,7.23
2023-04-18T19:20:38.784Z,6.40
2023-04-18T19:23:43.259Z,6.93
2023-04-18T19:26:46.622Z,6.77
2023-04-18T19:29:51.489Z,6.53
2023-04-18T19:32:54.507Z,6.77
2023-04-18T19:35:57.670Z,6.40
2023-04-18T19:39:02.288Z,6.87
2023-04-18T19:42:05.662Z,7.27
2023-04-18T19:45:11.271Z,6.30
2023-04-18T19:48:14.451Z,6.90
2023-04-18T19:51:17.735Z,7.10
2023-04-18T19:54:22.436Z,6.77
2023-04-18T19:57:26.322Z,7.03
2023-04-18T20:00:29.893Z,8.57
2023-04-18T20:03:34.271Z,8.63
2023-04-18T20:06:37.778Z,8.30
2023-04-18T20:09:42.273Z,8.43
2023-04-18T20:12:45.385Z,8.07
2023-04-18T20:15:49.090Z,7.83
2023-04-18T20:18:54.834Z,7.90
2023-04-18T20:21:58.246Z,8.10
2023-04-18T20:25:02.886Z,8.57
2023-04-18T20:28:06.411Z,7.87
2023-04-18T20:31:10.553Z,7.83
2023-04-18T20:34:17.993Z,8.20
2023-04-18T20:37:21.590Z,8.70
2023-04-18T20:40:27.046Z,8.30
2023-04-18T20:43:30.237Z,8.33
2023-04-18T20:46:33.807Z,10.60
2023-04-18T20:49:38.223Z,9.23
2023-04-18T20:52:42.728Z,8.73
2023-04-18T20:55:47.430Z,10.53
2023-04-18T20:58:50.687Z,9.30
2023-04-18T21:01:54.013Z,8.80
2023-04-18T21:04:59.652Z,8.03
2023-04-18T21:08:02.768Z,8.20
2023-04-18T21:11:07.331Z,9.27
2023-04-18T21:14:10.477Z,8.73
2023-04-18T21:17:17.327Z,9.37
2023-04-18T21:20:21.054Z,8.47
2023-04-18T21:23:24.653Z,10.13
2023-04-18T21:26:29.249Z,10.17
2023-04-18T21:29:32.355Z,9.60
2023-04-18T21:32:35.534Z,10.83
2023-04-18T21:35:38.708Z,10.30
2023-04-18T21:38:41.932Z,9.13
2023-04-18T21:41:46.559Z,10.03
2023-04-18T21:44:49.648Z,9.40
2023-04-18T21:47:52.944Z,9.93
2023-04-18T21:50:56.155Z,10.20
2023-04-18T21:54:00.977Z,10.03
2023-04-18T21:57:06.253Z,11.67
2023-04-18T22:00:11.230Z,10.93
2023-04-18T22:03:14.517Z,11.33
2023-04-18T22:06:20.796Z,11.07
2023-04-18T22:09:23.963Z,10.70
2023-04-18T22:12:28.671Z,9.47
2023-04-18T22:15:31.827Z,10.60
2023-04-18T22:18:36.827Z,12.60
2023-04-18T22:21:40.845Z,11.07
2023-04-18T22:24:46.112Z,12.10
2023-04-18T22:27:51.946Z,9.27
2023-04-18T22:30:55.308Z,9.60
2023-04-18T22:33:58.422Z,9.23
2023-04-18T22:37:01.591Z,8.70
2023-04-18T22:40:06.076Z,8.53
2023-04-18T22:43:10.574Z,9.13
2023-04-18T22:46:13.683Z,9.60
2023-04-18T22:49:17.970Z,12.43
2023-04-18T22:52:24.704Z,9.97
2023-04-18T22:55:29.425Z,8.77
2023-04-18T22:58:33.975Z,8.27
2023-04-18T23:01:37.051Z,8.33
2023-04-18T23:04:42.447Z,8.53
2023-04-18T23:07:45.629Z,8.17
2023-04-18T23:10:48.884Z,7.23
2023-04-18T23:13:53.339Z,8.10
2023-04-18T23:16:56.678Z,8.50
2023-04-18T23:19:59.915Z,7.60
2023-04-18T23:23:03.124Z,6.93
2023-04-18T23:26:14.315Z,7.50
2023-04-18T23:29:18.729Z,8.70
2023-04-18T23:32:22.257Z,7.77
2023-04-18T23:35:25.295Z,6.70
2023-04-18T23:38:28.900Z,7.37
2023-04-18T23:41:31.891Z,7.23
2023-04-18T23:44:36.352Z,8.50
2023-04-18T23:47:39.694Z,7.23
2023-04-18T23:50:46.951Z,6.80
2023-04-18T23:53:50.151Z,7.27
2023-04-18T23:56:53.227Z,7.63
2023-04-18T23:59:57.844Z,6.67
